Detall de PIREP

Printer-friendly versionPDF version

[2011/05/15 13:33:00]
Flight IATA:CT3232
Pilot Number:037
Company ICAO:CAT
Aircraft Type:B763/F
PAX:231
Departing Airport: LEPA
Destination Airport: LEMD
Alternate Airport:LEMG
Online: VATSIM
Route:TURIA UN733 PRADO

Flight Level:F270
No Slew and time accel
No pause
Crash detect
Detect pilot in Cockpit between each 30 and 45 minutes
13:33 Zero fuel Weight: 254903 Lbs, Fuel Weight: 35787 Lbs
13:33 VATSIM:LEPA 151300Z VRB04KT 9999 FEW025 SCT050 22/10 Q1023 NOSIG
13:33 VATSIM:LEMD 151300Z 06009KT 020V130 CAVOK 20/05 Q1025 WS R33L WS R33R NOSIG
13:51 Parking Brakes off
14:03 Take-off
14:03 Take off Weight: 288476 Lbs
14:03 Wind: 082º @ 002 Knots Heading: 058º
14:03 POS N39º 32´ 55´´ E002º 44´ 51´´
14:03 Flaps:2 at 166 Knots
14:03 Gear Up: 169 Knots
14:03 Flaps:1 at 189 Knots
14:03 Flaps:0 at 208 Knots
14:16 TOC
14:16 Fuel Weight: 28078 Lb
14:18 Wind:117º@008 Knots Heading: 259º Ground Speed: 479 Knots Altitude 27312 ft
14:33 Wind:138º@022 Knots Heading: 299º Ground Speed: 530 Knots Altitude 27319 ft
14:36 TOD
14:36 Fuel Weight: 24016 Lb
14:48 Wind:050º@021 Knots Heading: 270º Ground Speed: 265 Knots Altitude 6843 ft
14:51 Flaps:1 at 229 Knots
14:52 Flaps:2 at 239 Knots
14:52 Flaps:1 at 234 Knots
14:53 Flaps:0 at 221 Knots
14:53 Flaps:1 at 205 Knots
14:53 Flaps:4 at 171 Knots
14:54 Flaps:6 at 142 Knots
14:56 Gear Down: 134 Knots
14:59 TouchDown:Rate -33 ft/min Speed: 113 Knots
14:59 VATSIM:LEMD 151430Z 05010KT 020V090 CAVOK 21/04 Q1024 WS R33L WS R33R NOSIG
14:59 Land
14:59 Wind:063º@011 Knots
14:59 Heading: 323º
14:59 Flight Duration: 00:56
14:59 Landing Weight: 275971 Lbs
14:59 POS N40º 28´ 25´´ W003º 33´ 53´´
15:01 Parking brakes on
15:01 Block to Block Duration: 01:10
15:01 Final Fuel: 20645 Lbls
15:01 Spent Fuel: 15141 Lbls
15:01 Flight Length: 220 NM
15:01 TOD Land Length: 101 NM

Exportar CSV

Powered by Drupal - Modified by Danger4k